Florence, MS (39073)

04:24 AM CDT die 16o September, anno 2014 (GMT -0500)
Florence | Change Station
CLOSE
Current Station
Personal Weather Stations
Location: FLORENCE, MS
Elevation: 367 ft
Nearby Weather Stations

Elev 367 ft 32.18 °N, 90.11 °W | Updated 3 minutes ago

Partialiter Nubila
Partialiter Nubila
72.5 °F
Feels Like 72.5 °F
N
0.0
Ventus Variabilis Ventus from Magis Aquilo quam Eurus

Hodie
High -- | Low -- °F
--% Chance of Precip.
Yesterday
High -- | Low -- °F
Precip. -- in
6:45 AM 7:05 PM
Waning Gibbous, 47% visible
Pressio 30.07 in
Visibilitas 10.0 milia passuum
Clouds Serena
Frigus in quo Ros apparet 72 °F
Umor 99%
Rainfall 0.00 in
Snow Depth Not available.
UV 0 out of 12
Pollen 9.90 out of 12
Air Quality Not available.
Flu Activity Not available.
METAR KJAN 160854Z AUTO 00000KT 10SM CLR 24/22 A3008 RMK AO2 SLP182 T02390217 58004

More Conditions Fewer Conditions

Pressio 30.07 in
Visibilitas 10.0 milia passuum
Clouds Serena
Frigus in quo Ros apparet 72 °F
Umor 99%
Rainfall 0.00 in
Snow Depth Not available.
UV 0 out of 12
Pollen 9.90 out of 12
Air Quality Not available.
Flu Activity Not available.
METAR KJAN 160854Z AUTO 00000KT 10SM CLR 24/22 A3008 RMK AO2 SLP182 T02390217 58004

More Conditions Fewer Conditions

10-Day Weather Forecast

Almanac

Astronomy

Sep. 16, 2014 Rise Set
Actual Time 6:45 AM CDT 7:05 PM CDT
Civil Twilight 6:20 AM CDT 7:29 PM CDT
Nautical Twilight 5:51 AM CDT 7:58 PM CDT
Astronomical Twilight 5:22 AM CDT 8:27 PM CDT
Moon 12:09 AM CDT 2:14 PM CDT
Length Of Visible Light 13h 09m
Length of Day
12h 20m
Tomorrow will be 1m 57s shorter.
Waning Gibbous, 47% of the Moon is Illuminated
Hodie
Waning Gibbous
Sep 24
New
Oct 1
First Quarter
Oct 8
Full
Oct 15
Last Quarter

Today's Extremes

State Highs State Lows

Community

WunderPhotos

Upload Photos

1,753,714 photos uploaded!

WunderBlogs® & News

Nearby

Snow Depth

Station Depth Elevation
No new snow has been reported.

Earthquake Activity

City Distance Mag. Time & Date
No recent earthquake activity has been reported nearby.
Minimum magnitude displayed is 2.5.

Coastal Water Temperatures

Locus Calor
No Stations Reporting

Nearby Weather Stations